Time;durP1;ratioP1;P1;durP2;ratioP2;P2;SDS_P1;SDS_P2;PMS_P1;PMS_P2;Temp;Humidity;BMP_temperature;BMP_pressure;BME280_temperature;BME280_humidity;BME280_pressure;Samples;Min_cycle;Max_cycle;Signal;HPM_P1;HPM_P2
2022/10/06 00:00:27;;;;;;;;;;;13.20;99.90;;;;;;5070845;28;19924;-66
2022/10/06 00:02:54;;;;;;;;;;;13.20;99.90;;;;;;5054956;28;19931;-66
2022/10/06 00:05:20;;;;;;;;;;;13.10;99.90;;;;;;5053486;28;20032;-66
2022/10/06 00:07:47;;;;;;;;;;;13.10;99.90;;;;;;5052616;28;19925;-66
2022/10/06 00:10:14;;;;;;;;;;;13.10;99.90;;;;;;5052972;28;19947;-66
2022/10/06 00:12:41;;;;;;;;;;;13.10;99.90;;;;;;5051521;28;19925;-66
2022/10/06 00:15:10;;;;;;;;;;;13.10;99.90;;;;;;5064942;28;19935;-65
2022/10/06 00:17:37;;;;;;;;;;;13.00;99.90;;;;;;5065914;28;20010;-67
2022/10/06 00:20:04;;;;;;;;;;;13.00;99.90;;;;;;5061443;28;19925;-65
2022/10/06 00:22:33;;;;;;;;;;;13.00;99.90;;;;;;5053925;28;20299;-66
2022/10/06 00:24:59;;;;;;;;;;;13.00;99.90;;;;;;5062685;28;19935;-65
2022/10/06 00:27:32;;;;;;;;;;;12.90;99.90;;;;;;5059028;28;20411;-65
2022/10/06 00:29:59;;;;;;;;;;;12.90;99.90;;;;;;5066194;28;20306;-66
2022/10/06 00:32:26;;;;;;;;;;;12.90;99.90;;;;;;5072013;28;19924;-66
2022/10/06 00:34:53;;;;;;;;;;;12.80;99.90;;;;;;5064632;28;19924;-66
2022/10/06 00:37:20;;;;;;;;;;;12.80;99.90;;;;;;5054760;28;19960;-66
2022/10/06 00:39:47;;;;;;;;;;;12.70;99.90;;;;;;5063826;28;19925;-66
2022/10/06 00:42:23;;;;;;;;;;;12.70;99.90;;;;;;5052386;28;20474;-65
2022/10/06 00:44:50;;;;;;;;;;;12.60;99.90;;;;;;5051593;28;19925;-65
2022/10/06 00:47:17;;;;;;;;;;;12.60;99.90;;;;;;5065257;28;19971;-63
2022/10/06 00:49:45;;;;;;;;;;;12.50;99.90;;;;;;5071518;28;20389;-64
2022/10/06 00:52:13;;;;;;;;;;;12.50;99.90;;;;;;5070152;28;19931;-64
2022/10/06 00:54:40;;;;;;;;;;;12.40;99.90;;;;;;5059139;28;19928;-64
2022/10/06 00:57:07;;;;;;;;;;;12.40;99.90;;;;;;5061020;28;19924;-64
2022/10/06 00:59:34;;;;;;;;;;;12.40;99.90;;;;;;5058392;28;19931;-64
2022/10/06 01:02:03;;;;;;;;;;;12.40;99.90;;;;;;5051452;28;19935;-64
2022/10/06 01:04:31;;;;;;;;;;;12.30;99.90;;;;;;5053364;28;20338;-64
2022/10/06 01:07:00;;;;;;;;;;;12.30;99.90;;;;;;5051379;28;20486;-65
2022/10/06 01:09:28;;;;;;;;;;;12.20;99.90;;;;;;5057935;28;19925;-64
2022/10/06 01:11:56;;;;;;;;;;;12.20;99.90;;;;;;5056190;28;20306;-64
2022/10/06 01:14:24;;;;;;;;;;;12.10;99.90;;;;;;5062661;28;20385;-64
2022/10/06 01:16:54;;;;;;;;;;;12.20;99.90;;;;;;5065999;28;19932;-64
2022/10/06 01:19:26;;;;;;;;;;;12.10;99.90;;;;;;5062285;28;19928;-64
2022/10/06 01:21:53;;;;;;;;;;;12.10;99.90;;;;;;5052979;28;19932;-64
2022/10/06 01:24:21;;;;;;;;;;;12.00;99.90;;;;;;5051222;28;19931;-64
2022/10/06 01:26:50;;;;;;;;;;;12.00;99.90;;;;;;5051500;28;19928;-65
2022/10/06 01:29:17;;;;;;;;;;;12.00;99.90;;;;;;5052194;28;19925;-65
2022/10/06 01:31:43;;;;;;;;;;;11.90;99.90;;;;;;5053308;28;19931;-65
2022/10/06 01:34:10;;;;;;;;;;;11.90;99.90;;;;;;5057751;28;19929;-65
2022/10/06 01:36:39;;;;;;;;;;;11.90;99.90;;;;;;5061952;28;20482;-65
2022/10/06 01:39:06;;;;;;;;;;;11.90;99.90;;;;;;5057622;28;19930;-64
2022/10/06 01:41:34;;;;;;;;;;;11.90;99.90;;;;;;5051906;28;19925;-64
2022/10/06 01:44:00;;;;;;;;;;;11.80;99.90;;;;;;5054942;28;19929;-65
2022/10/06 01:46:28;;;;;;;;;;;11.80;99.90;;;;;;5067253;28;19928;-65
2022/10/06 01:48:54;;;;;;;;;;;11.70;99.90;;;;;;5053486;28;19929;-65
2022/10/06 01:51:21;;;;;;;;;;;11.70;99.90;;;;;;5058259;28;19925;-64
2022/10/06 01:53:48;;;;;;;;;;;11.70;99.90;;;;;;5067224;28;19933;-65
2022/10/06 01:56:14;;;;;;;;;;;11.60;99.90;;;;;;5050411;28;20012;-65
2022/10/06 01:58:42;;;;;;;;;;;11.60;99.90;;;;;;5069428;28;19935;-64
2022/10/06 02:01:09;;;;;;;;;;;11.60;99.90;;;;;;5063539;28;19924;-64
2022/10/06 02:03:36;;;;;;;;;;;11.60;99.90;;;;;;5051149;28;20282;-65
2022/10/06 02:06:03;;;;;;;;;;;11.50;99.90;;;;;;5055238;28;19924;-65
2022/10/06 02:08:30;;;;;;;;;;;11.50;99.90;;;;;;5064061;28;19924;-64
2022/10/06 02:10:56;;;;;;;;;;;11.50;99.90;;;;;;5052242;28;19928;-64
2022/10/06 02:13:24;;;;;;;;;;;11.40;99.90;;;;;;5051065;28;19931;-64
2022/10/06 02:15:56;;;;;;;;;;;11.40;99.90;;;;;;5069997;28;19972;-64
2022/10/06 02:18:22;;;;;;;;;;;11.30;99.90;;;;;;5054537;28;19924;-64
2022/10/06 02:20:49;;;;;;;;;;;11.30;99.90;;;;;;5077473;28;19931;-65
2022/10/06 02:23:16;;;;;;;;;;;11.30;99.90;;;;;;5070561;28;19931;-66
2022/10/06 02:25:42;;;;;;;;;;;11.30;99.90;;;;;;5054319;28;19925;-65
2022/10/06 02:28:09;;;;;;;;;;;11.30;99.90;;;;;;5059020;28;19924;-65
2022/10/06 02:30:36;;;;;;;;;;;11.30;99.90;;;;;;5061800;28;19925;-65
2022/10/06 02:33:04;;;;;;;;;;;11.30;99.90;;;;;;5055323;28;20408;-64
2022/10/06 02:35:31;;;;;;;;;;;11.20;99.90;;;;;;5058785;28;20391;-64
2022/10/06 02:37:58;;;;;;;;;;;11.30;99.90;;;;;;5064556;28;20348;-64
2022/10/06 02:40:25;;;;;;;;;;;11.20;99.90;;;;;;5068693;28;20418;-64
2022/10/06 02:42:51;;;;;;;;;;;11.20;99.90;;;;;;5069087;28;19928;-64
2022/10/06 02:45:18;;;;;;;;;;;11.20;99.90;;;;;;5062568;28;19925;-64
2022/10/06 02:47:45;;;;;;;;;;;11.10;99.90;;;;;;5055736;28;19925;-64
2022/10/06 02:50:13;;;;;;;;;;;11.10;99.90;;;;;;5063019;28;19968;-65
2022/10/06 02:52:41;;;;;;;;;;;11.10;99.90;;;;;;5060503;28;20488;-64
2022/10/06 02:55:09;;;;;;;;;;;11.10;99.90;;;;;;5055732;28;20015;-65
2022/10/06 02:57:35;;;;;;;;;;;11.10;99.90;;;;;;5069566;28;20299;-65
2022/10/06 03:00:02;;;;;;;;;;;11.00;99.90;;;;;;5062674;28;20477;-64
2022/10/06 03:02:29;;;;;;;;;;;11.00;99.90;;;;;;5054519;28;19960;-64
2022/10/06 03:04:56;;;;;;;;;;;11.00;99.90;;;;;;5065736;28;20342;-65
2022/10/06 03:07:24;;;;;;;;;;;11.00;99.90;;;;;;5062981;28;19939;-64
2022/10/06 03:09:51;;;;;;;;;;;10.90;99.90;;;;;;5061699;28;19931;-64
2022/10/06 03:12:17;;;;;;;;;;;10.90;99.90;;;;;;5054439;28;20022;-65
2022/10/06 03:14:44;;;;;;;;;;;10.90;99.90;;;;;;5061358;28;19925;-64
2022/10/06 03:17:10;;;;;;;;;;;10.90;99.90;;;;;;5053432;28;19925;-64
2022/10/06 03:19:37;;;;;;;;;;;10.90;99.90;;;;;;5061689;28;19931;-64
2022/10/06 03:22:05;;;;;;;;;;;10.90;99.90;;;;;;5077587;28;19968;-64
2022/10/06 03:24:33;;;;;;;;;;;10.80;99.90;;;;;;5054046;28;20374;-64
2022/10/06 03:27:00;;;;;;;;;;;10.80;99.90;;;;;;5057709;28;19952;-64
2022/10/06 03:29:29;;;;;;;;;;;10.80;99.90;;;;;;5063066;28;19977;-64
2022/10/06 03:31:57;;;;;;;;;;;10.80;99.90;;;;;;5056370;28;19976;-64
2022/10/06 03:34:23;;;;;;;;;;;10.70;99.90;;;;;;5054143;28;19925;-64
2022/10/06 03:36:50;;;;;;;;;;;10.70;99.90;;;;;;5066343;28;19924;-64
2022/10/06 03:39:17;;;;;;;;;;;10.70;99.90;;;;;;5055488;28;20019;-64
2022/10/06 03:41:45;;;;;;;;;;;10.70;99.90;;;;;;5054856;28;19932;-65
2022/10/06 03:44:11;;;;;;;;;;;10.60;99.90;;;;;;5063067;28;19925;-64
2022/10/06 03:46:38;;;;;;;;;;;10.70;99.90;;;;;;5060876;28;20007;-64
2022/10/06 03:49:05;;;;;;;;;;;10.70;99.90;;;;;;5056063;28;20375;-64
2022/10/06 03:51:32;;;;;;;;;;;10.60;99.90;;;;;;5067150;28;19924;-64
2022/10/06 03:53:59;;;;;;;;;;;10.60;99.90;;;;;;5053153;28;19924;-64
2022/10/06 03:56:27;;;;;;;;;;;10.60;99.90;;;;;;5051496;28;20387;-64
2022/10/06 03:58:56;;;;;;;;;;;10.60;99.90;;;;;;5061011;28;19924;-64
2022/10/06 04:01:24;;;;;;;;;;;10.60;99.90;;;;;;5070634;28;19925;-64
2022/10/06 04:03:50;;;;;;;;;;;10.60;99.90;;;;;;5066922;28;19935;-64
2022/10/06 04:06:18;;;;;;;;;;;10.50;99.90;;;;;;5067256;28;19938;-64
2022/10/06 04:08:46;;;;;;;;;;;10.50;99.90;;;;;;5054906;28;20011;-64
2022/10/06 04:11:13;;;;;;;;;;;10.50;99.90;;;;;;5062077;28;19925;-64
2022/10/06 04:13:40;;;;;;;;;;;10.50;99.90;;;;;;5051679;28;19931;-64
2022/10/06 04:16:13;;;;;;;;;;;10.40;99.90;;;;;;5069364;28;19925;-63
2022/10/06 04:18:39;;;;;;;;;;;10.40;99.90;;;;;;5056844;28;19930;-63
2022/10/06 04:21:06;;;;;;;;;;;10.40;99.90;;;;;;5070450;28;19925;-63
2022/10/06 04:23:35;;;;;;;;;;;10.30;99.90;;;;;;5068976;28;20355;-64
2022/10/06 04:26:04;;;;;;;;;;;10.30;99.90;;;;;;5059762;28;19936;-64
2022/10/06 04:28:30;;;;;;;;;;;10.30;99.90;;;;;;5055372;28;20016;-64
2022/10/06 04:30:57;;;;;;;;;;;10.20;99.90;;;;;;5066347;28;19925;-64
2022/10/06 04:33:26;;;;;;;;;;;10.20;99.90;;;;;;5051825;28;19929;-64
2022/10/06 04:35:58;;;;;;;;;;;10.20;99.90;;;;;;5068766;28;19924;-64
2022/10/06 04:38:26;;;;;;;;;;;10.20;99.90;;;;;;5051778;28;19931;-65
2022/10/06 04:40:52;;;;;;;;;;;10.20;99.90;;;;;;5056071;28;20454;-65
2022/10/06 04:43:19;;;;;;;;;;;10.10;99.90;;;;;;5050782;28;20401;-64
2022/10/06 04:45:45;;;;;;;;;;;10.10;99.90;;;;;;5068154;28;20418;-64
2022/10/06 04:48:13;;;;;;;;;;;10.10;99.90;;;;;;5057563;28;20011;-64
2022/10/06 04:50:41;;;;;;;;;;;10.00;99.90;;;;;;5082475;28;19931;-64
2022/10/06 04:53:08;;;;;;;;;;;10.00;99.90;;;;;;5052542;28;19931;-64
2022/10/06 04:55:34;;;;;;;;;;;10.00;99.90;;;;;;5065052;28;19931;-64
2022/10/06 04:58:01;;;;;;;;;;;10.00;99.90;;;;;;5056573;28;19982;-64
2022/10/06 05:00:27;;;;;;;;;;;9.90;99.90;;;;;;5069429;28;19946;-64
2022/10/06 05:02:55;;;;;;;;;;;9.90;99.90;;;;;;5052980;28;20401;-64
2022/10/06 05:05:22;;;;;;;;;;;9.90;99.90;;;;;;5065191;28;19924;-65
2022/10/06 05:07:50;;;;;;;;;;;9.80;99.90;;;;;;5053239;28;19959;-65
2022/10/06 05:10:17;;;;;;;;;;;9.80;99.90;;;;;;5049268;28;19972;-66
2022/10/06 05:12:43;;;;;;;;;;;9.80;99.90;;;;;;5052588;28;20401;-65
2022/10/06 05:15:10;;;;;;;;;;;9.80;99.90;;;;;;5067600;28;20023;-65
2022/10/06 05:17:37;;;;;;;;;;;9.80;99.90;;;;;;5057154;28;20063;-66
2022/10/06 05:20:04;;;;;;;;;;;9.70;99.90;;;;;;5055203;28;20011;-66
2022/10/06 05:22:31;;;;;;;;;;;9.70;99.90;;;;;;5052100;28;19931;-66
2022/10/06 05:24:59;;;;;;;;;;;9.70;99.90;;;;;;5063476;28;19947;-65
2022/10/06 05:27:25;;;;;;;;;;;9.70;99.90;;;;;;5056731;28;19978;-65
2022/10/06 05:29:52;;;;;;;;;;;9.70;99.90;;;;;;5055111;28;19932;-65
2022/10/06 05:32:19;;;;;;;;;;;9.70;99.90;;;;;;5055729;28;19931;-66
2022/10/06 05:34:45;;;;;;;;;;;9.60;99.90;;;;;;5054852;28;19947;-66
2022/10/06 05:37:12;;;;;;;;;;;9.60;99.90;;;;;;5053984;28;19932;-65
2022/10/06 05:39:39;;;;;;;;;;;9.60;99.90;;;;;;5056952;28;19933;-66
2022/10/06 05:42:07;;;;;;;;;;;9.60;99.90;;;;;;5053035;28;20015;-66
2022/10/06 05:44:33;;;;;;;;;;;9.50;99.90;;;;;;5056164;28;20270;-66
2022/10/06 05:47:00;;;;;;;;;;;9.50;99.90;;;;;;5059160;28;20358;-67
2022/10/06 05:49:27;;;;;;;;;;;9.40;99.90;;;;;;5060012;28;19928;-67
2022/10/06 05:51:53;;;;;;;;;;;9.40;99.90;;;;;;5066854;28;19932;-67
2022/10/06 05:54:20;;;;;;;;;;;9.50;99.90;;;;;;5065670;28;19925;-67
2022/10/06 05:56:47;;;;;;;;;;;9.50;99.90;;;;;;5069790;28;20030;-67
2022/10/06 05:59:15;;;;;;;;;;;9.50;99.90;;;;;;5069016;28;20016;-67
2022/10/06 06:01:42;;;;;;;;;;;9.50;99.90;;;;;;5058485;28;19925;-67
2022/10/06 06:04:10;;;;;;;;;;;9.50;99.90;;;;;;5056166;28;19929;-67
2022/10/06 06:06:37;;;;;;;;;;;9.40;99.90;;;;;;5061007;28;19928;-66
2022/10/06 06:09:06;;;;;;;;;;;9.50;99.90;;;;;;5056201;28;19977;-67
2022/10/06 06:11:33;;;;;;;;;;;9.50;99.90;;;;;;5060109;28;20024;-66
2022/10/06 06:14:00;;;;;;;;;;;9.50;99.90;;;;;;5067787;28;19925;-67
2022/10/06 06:16:27;;;;;;;;;;;9.50;99.90;;;;;;5061284;28;19979;-64
2022/10/06 06:18:54;;;;;;;;;;;9.50;99.90;;;;;;5059789;28;19932;-65
2022/10/06 06:21:21;;;;;;;;;;;9.50;99.90;;;;;;5059222;28;20474;-64
2022/10/06 06:23:49;;;;;;;;;;;9.60;99.90;;;;;;5057217;28;19931;-64
2022/10/06 06:26:16;;;;;;;;;;;9.60;99.90;;;;;;5056316;28;19943;-66
2022/10/06 06:28:44;;;;;;;;;;;9.60;99.90;;;;;;5056155;28;19940;-65
2022/10/06 06:31:12;;;;;;;;;;;9.60;99.90;;;;;;5057860;28;19933;-65
2022/10/06 06:33:41;;;;;;;;;;;9.70;99.90;;;;;;5058852;28;19924;-65
2022/10/06 06:36:14;;;;;;;;;;;9.70;99.90;;;;;;5060839;28;20305;-65
2022/10/06 06:38:41;;;;;;;;;;;9.80;99.90;;;;;;5057663;28;19925;-65
2022/10/06 06:41:18;;;;;;;;;;;9.90;99.90;;;;;;5059118;28;19963;-66
2022/10/06 06:43:45;;;;;;;;;;;9.90;99.90;;;;;;5059913;28;19924;-66
2022/10/06 06:46:13;;;;;;;;;;;10.00;99.90;;;;;;5055510;28;19925;-64
2022/10/06 06:48:42;;;;;;;;;;;10.00;99.90;;;;;;5066473;28;19978;-66
2022/10/06 06:51:10;;;;;;;;;;;10.10;99.90;;;;;;5054193;28;19925;-71
2022/10/06 06:53:36;;;;;;;;;;;10.20;99.90;;;;;;5060306;28;20387;-68
2022/10/06 06:56:03;;;;;;;;;;;10.30;99.90;;;;;;5065941;28;20362;-65
2022/10/06 06:58:31;;;;;;;;;;;10.30;99.90;;;;;;5053387;28;20019;-66
2022/10/06 07:01:04;;;;;;;;;;;10.40;99.90;;;;;;5056843;28;19947;-67
2022/10/06 07:03:30;;;;;;;;;;;10.50;99.90;;;;;;5064548;28;20298;-65
2022/10/06 07:06:07;;;;;;;;;;;10.50;99.90;;;;;;5059170;28;20148;-66
2022/10/06 07:08:34;;;;;;;;;;;10.60;99.90;;;;;;5058526;28;19950;-65
2022/10/06 07:11:09;;;;;;;;;;;10.70;99.90;;;;;;5052430;28;19935;-64
2022/10/06 07:13:36;;;;;;;;;;;10.70;99.90;;;;;;5060479;28;19931;-63
2022/10/06 07:27:02;;;;;;;;;;;11.10;99.90;;;;;;5065570;28;20004;-64
2022/10/06 07:29:28;;;;;;;;;;;11.20;99.90;;;;;;5057455;28;19940;-63
2022/10/06 07:31:55;;;;;;;;;;;11.30;99.90;;;;;;5056515;28;19943;-64
2022/10/06 07:34:22;;;;;;;;;;;11.30;99.90;;;;;;5065737;28;20007;-64
2022/10/06 07:36:53;;;;;;;;;;;11.40;99.90;;;;;;5061170;28;19939;-64
2022/10/06 07:39:19;;;;;;;;;;;11.80;99.90;;;;;;5061985;28;19974;-64
2022/10/06 07:41:46;;;;;;;;;;;13.70;99.90;;;;;;5067921;28;20015;-65
2022/10/06 07:44:13;;;;;;;;;;;15.00;99.90;;;;;;5055246;28;20008;-64
2022/10/06 07:46:39;;;;;;;;;;;16.10;99.90;;;;;;5054119;28;20280;-64
2022/10/06 07:49:07;;;;;;;;;;;16.50;99.90;;;;;;5069073;28;20338;-65
2022/10/06 07:51:33;;;;;;;;;;;17.00;97.10;;;;;;5052672;28;19925;-64
2022/10/06 07:54:02;;;;;;;;;;;17.50;96.70;;;;;;5064503;28;20007;-65
2022/10/06 07:56:30;;;;;;;;;;;18.20;94.60;;;;;;5051846;28;19925;-65
2022/10/06 07:58:58;;;;;;;;;;;18.90;92.80;;;;;;5054092;28;19937;-64
2022/10/06 08:01:25;;;;;;;;;;;18.90;90.70;;;;;;5061295;28;19933;-65
2022/10/06 08:03:52;;;;;;;;;;;18.30;90.80;;;;;;5060959;28;19925;-65
2022/10/06 08:06:19;;;;;;;;;;;18.70;91.10;;;;;;5053043;28;20320;-61
2022/10/06 08:08:46;;;;;;;;;;;19.30;88.90;;;;;;5058356;28;20275;-65
2022/10/06 08:11:15;;;;;;;;;;;19.30;85.60;;;;;;5058308;28;20379;-65
2022/10/06 08:13:43;;;;;;;;;;;18.70;86.80;;;;;;5055873;28;20019;-64
2022/10/06 08:16:11;;;;;;;;;;;19.20;87.30;;;;;;5058085;28;19931;-65
2022/10/06 08:18:37;;;;;;;;;;;19.90;83.20;;;;;;5058346;28;19925;-65
2022/10/06 08:21:12;;;;;;;;;;;20.30;79.20;;;;;;5054176;28;19935;-65
2022/10/06 08:23:41;;;;;;;;;;;20.30;79.90;;;;;;5057884;28;19924;-64
2022/10/06 08:26:08;;;;;;;;;;;20.30;76.30;;;;;;5058987;28;19929;-65
2022/10/06 08:28:36;;;;;;;;;;;20.50;75.60;;;;;;5052634;28;19931;-65
2022/10/06 08:31:03;;;;;;;;;;;20.30;75.00;;;;;;5064463;28;19932;-64
2022/10/06 08:33:30;;;;;;;;;;;20.90;74.10;;;;;;5055985;28;19972;-65
2022/10/06 08:36:01;;;;;;;;;;;21.00;69.60;;;;;;5059071;28;19928;-65
2022/10/06 08:38:28;;;;;;;;;;;20.90;70.10;;;;;;5060475;28;19928;-65
2022/10/06 08:40:54;;;;;;;;;;;20.40;68.90;;;;;;5057491;28;19930;-65
2022/10/06 08:43:23;;;;;;;;;;;20.40;70.20;;;;;;5059714;28;19971;-65
2022/10/06 08:45:58;;;;;;;;;;;20.90;71.40;;;;;;5057838;28;19924;-65
2022/10/06 08:48:27;;;;;;;;;;;22.40;66.50;;;;;;5054688;28;20037;-65
2022/10/06 08:50:58;;;;;;;;;;;21.80;62.00;;;;;;5060519;28;20463;-65
2022/10/06 08:53:28;;;;;;;;;;;21.50;62.50;;;;;;5059522;28;19925;-65
2022/10/06 08:56:00;;;;;;;;;;;21.20;60.70;;;;;;5053683;28;19929;-65
2022/10/06 08:58:35;;;;;;;;;;;20.80;62.90;;;;;;5057370;28;19925;-65
2022/10/06 09:01:12;;;;;;;;;;;20.10;63.70;;;;;;5054131;28;20302;-65
2022/10/06 09:03:39;;;;;;;;;;;19.90;67.00;;;;;;5054037;28;19931;-64
2022/10/06 09:06:08;;;;;;;;;;;20.60;67.30;;;;;;5056925;28;20277;-65
2022/10/06 09:08:39;;;;;;;;;;;21.30;64.20;;;;;;5064852;28;19932;-65
2022/10/06 09:11:12;;;;;;;;;;;21.60;60.30;;;;;;5056970;28;20024;-66
2022/10/06 09:13:42;;;;;;;;;;;22.40;58.10;;;;;;5057472;28;19924;-64
2022/10/06 09:16:13;;;;;;;;;;;22.20;55.80;;;;;;5058568;28;19924;-65
2022/10/06 09:18:43;;;;;;;;;;;21.30;57.10;;;;;;5054682;28;20276;-65
2022/10/06 09:21:12;;;;;;;;;;;20.20;58.20;;;;;;5055679;28;20370;-65
2022/10/06 09:23:48;;;;;;;;;;;19.50;61.20;;;;;;5057227;28;19930;-65
2022/10/06 09:26:16;;;;;;;;;;;19.60;64.00;;;;;;5070154;28;20402;-65
2022/10/06 09:28:44;;;;;;;;;;;18.90;66.80;;;;;;5054607;28;19968;-66
2022/10/06 09:31:18;;;;;;;;;;;17.70;71.60;;;;;;5061702;28;19951;-65
2022/10/06 09:33:45;;;;;;;;;;;16.80;78.90;;;;;;5062800;28;19925;-65
2022/10/06 09:36:12;;;;;;;;;;;16.30;87.70;;;;;;5064612;28;19925;-65
2022/10/06 09:38:51;;;;;;;;;;;15.90;90.40;;;;;;5059223;28;20291;-66
2022/10/06 09:41:18;;;;;;;;;;;15.80;92.90;;;;;;5057984;28;20050;-66
2022/10/06 09:43:51;;;;;;;;;;;15.60;91.90;;;;;;5058058;28;19928;-66
2022/10/06 09:46:21;;;;;;;;;;;15.50;92.30;;;;;;5056981;28;19933;-65
2022/10/06 09:48:47;;;;;;;;;;;15.50;92.80;;;;;;5055817;28;19924;-65
2022/10/06 09:51:15;;;;;;;;;;;15.70;93.40;;;;;;5052897;28;19929;-65
2022/10/06 09:53:42;;;;;;;;;;;15.80;93.30;;;;;;5057423;28;19925;-65
2022/10/06 09:56:12;;;;;;;;;;;15.90;91.30;;;;;;5062094;28;19924;-64
2022/10/06 09:58:39;;;;;;;;;;;15.90;91.30;;;;;;5058342;28;19925;-66
2022/10/06 10:01:06;;;;;;;;;;;15.90;91.10;;;;;;5062619;28;20135;-65
2022/10/06 10:03:50;;;;;;;;;;;15.80;89.80;;;;;;5059498;28;19925;-65
2022/10/06 10:06:26;;;;;;;;;;;15.80;90.30;;;;;;5067098;28;19924;-65
2022/10/06 10:09:12;;;;;;;;;;;15.80;90.70;;;;;;5054994;28;19936;-66
2022/10/06 10:14:23;;;;;;;;;;;15.90;90.40;;;;;;5066940;28;19931;-65
2022/10/06 10:16:50;;;;;;;;;;;16.00;90.40;;;;;;5060485;28;19925;-66
2022/10/06 10:19:26;;;;;;;;;;;16.10;89.80;;;;;;5059144;28;20302;-65
2022/10/06 10:21:55;;;;;;;;;;;16.00;85.70;;;;;;5054125;28;20030;-66
2022/10/06 10:24:37;;;;;;;;;;;16.00;86.90;;;;;;5053144;28;20043;-66
2022/10/06 10:27:06;;;;;;;;;;;16.00;87.20;;;;;;5059320;28;19932;-66
2022/10/06 10:29:44;;;;;;;;;;;16.10;89.30;;;;;;5057591;28;20290;-65
2022/10/06 10:32:14;;;;;;;;;;;16.00;86.80;;;;;;5066301;28;19963;-66
2022/10/06 10:34:51;;;;;;;;;;;15.90;87.60;;;;;;5060731;28;19990;-66
2022/10/06 10:37:23;;;;;;;;;;;16.00;89.60;;;;;;5052696;28;19931;-66
2022/10/06 10:39:52;;;;;;;;;;;16.00;89.20;;;;;;5056004;28;19928;-66
2022/10/06 10:42:22;;;;;;;;;;;16.00;88.60;;;;;;5056497;28;19924;-66
2022/10/06 10:44:52;;;;;;;;;;;16.10;88.50;;;;;;5069404;28;19936;-65
2022/10/06 10:47:24;;;;;;;;;;;16.20;89.00;;;;;;5052868;28;20346;-66
2022/10/06 10:49:57;;;;;;;;;;;16.10;87.70;;;;;;5057904;28;19955;-65
2022/10/06 10:52:26;;;;;;;;;;;16.00;87.80;;;;;;5056754;28;20436;-66
2022/10/06 10:54:58;;;;;;;;;;;15.90;88.10;;;;;;5059054;28;19964;-65
2022/10/06 10:57:39;;;;;;;;;;;16.00;89.30;;;;;;5065581;28;19924;-66
2022/10/06 11:00:07;;;;;;;;;;;16.10;89.40;;;;;;5061331;28;19925;-65
2022/10/06 11:02:37;;;;;;;;;;;16.30;88.40;;;;;;5062930;28;20283;-65
2022/10/06 11:05:12;;;;;;;;;;;16.20;88.00;;;;;;5059052;28;20100;-66
2022/10/06 11:07:44;;;;;;;;;;;16.30;88.40;;;;;;5052205;28;19948;-65
2022/10/06 11:10:13;;;;;;;;;;;16.50;87.60;;;;;;5058779;28;19925;-65
2022/10/06 11:12:47;;;;;;;;;;;16.50;84.70;;;;;;5077991;28;19947;-65
2022/10/06 11:15:19;;;;;;;;;;;16.50;83.50;;;;;;5059856;28;19925;-65
2022/10/06 11:17:48;;;;;;;;;;;16.40;80.80;;;;;;5065916;28;19990;-65
2022/10/06 11:20:24;;;;;;;;;;;16.40;83.60;;;;;;5059010;28;20058;-65
2022/10/06 11:22:54;;;;;;;;;;;16.60;83.40;;;;;;5071685;28;20027;-66
2022/10/06 11:25:22;;;;;;;;;;;16.70;82.30;;;;;;5059531;28;19942;-66
2022/10/06 11:27:54;;;;;;;;;;;16.70;82.80;;;;;;5070884;28;19924;-65
2022/10/06 11:30:25;;;;;;;;;;;16.80;83.00;;;;;;5068709;28;19924;-65
2022/10/06 11:33:00;;;;;;;;;;;16.70;78.90;;;;;;5067237;28;19925;-65
2022/10/06 11:35:33;;;;;;;;;;;16.80;79.30;;;;;;5058583;28;19933;-65
2022/10/06 11:38:03;;;;;;;;;;;16.90;79.10;;;;;;5057907;28;19925;-65
2022/10/06 11:40:40;;;;;;;;;;;16.90;76.10;;;;;;5055956;28;19924;-66
2022/10/06 11:43:12;;;;;;;;;;;16.70;77.50;;;;;;5056529;28;20302;-67
2022/10/06 11:45:43;;;;;;;;;;;16.60;78.60;;;;;;5061382;28;19924;-65
2022/10/06 11:48:19;;;;;;;;;;;16.70;79.80;;;;;;5051785;28;19925;-66
2022/10/06 11:50:51;;;;;;;;;;;16.90;78.30;;;;;;5055480;28;19925;-65
2022/10/06 11:53:33;;;;;;;;;;;17.00;75.00;;;;;;5053801;28;20239;-66
2022/10/06 11:56:18;;;;;;;;;;;17.00;76.10;;;;;;5054088;28;19959;-66
2022/10/06 11:59:08;;;;;;;;;;;17.00;75.40;;;;;;5067614;28;19946;-65
2022/10/06 12:01:49;;;;;;;;;;;17.10;72.50;;;;;;5055841;28;19943;-66
2022/10/06 12:04:16;;;;;;;;;;;17.10;70.90;;;;;;5057704;28;20007;-66
2022/10/06 12:06:55;;;;;;;;;;;17.20;71.20;;;;;;5054238;28;19932;-66
2022/10/06 12:09:26;;;;;;;;;;;17.30;70.20;;;;;;5063956;28;19933;-65
2022/10/06 12:11:53;;;;;;;;;;;17.20;66.10;;;;;;5063713;28;19932;-66
2022/10/06 12:14:27;;;;;;;;;;;17.20;62.10;;;;;;5070230;28;20379;-66
2022/10/06 12:16:58;;;;;;;;;;;17.20;60.50;;;;;;5059667;28;20007;-66
2022/10/06 12:19:28;;;;;;;;;;;17.30;60.70;;;;;;5054379;28;20003;-66
2022/10/06 12:22:00;;;;;;;;;;;17.60;62.40;;;;;;5057169;28;19924;-65
2022/10/06 12:24:30;;;;;;;;;;;17.70;58.90;;;;;;5062472;28;20297;-65
2022/10/06 12:27:05;;;;;;;;;;;17.60;53.90;;;;;;5054010;28;20034;-65
2022/10/06 12:29:39;;;;;;;;;;;17.50;55.50;;;;;;5069427;28;19969;-65
2022/10/06 12:32:13;;;;;;;;;;;17.50;56.80;;;;;;5055750;28;20128;-66
2022/10/06 12:34:46;;;;;;;;;;;17.90;56.40;;;;;;5051965;28;20358;-66
2022/10/06 12:37:31;;;;;;;;;;;17.80;52.90;;;;;;5061949;28;20011;-66
2022/10/06 12:40:12;;;;;;;;;;;17.80;53.10;;;;;;5056689;28;19931;-67
2022/10/06 12:42:41;;;;;;;;;;;17.80;51.10;;;;;;5056085;28;19925;-66
2022/10/06 12:45:13;;;;;;;;;;;17.60;50.10;;;;;;5054488;28;19972;-65
2022/10/06 12:47:42;;;;;;;;;;;17.80;50.30;;;;;;5053292;28;19939;-67
2022/10/06 12:50:13;;;;;;;;;;;17.70;47.30;;;;;;5057064;28;21110;-66
2022/10/06 12:52:46;;;;;;;;;;;17.80;50.30;;;;;;5068796;28;19925;-66
2022/10/06 12:55:20;;;;;;;;;;;17.60;48.90;;;;;;5059453;28;19968;-67
2022/10/06 12:57:49;;;;;;;;;;;17.80;51.30;;;;;;5066058;28;20454;-66
2022/10/06 13:00:23;;;;;;;;;;;17.90;51.50;;;;;;5055217;28;19935;-66
2022/10/06 13:02:52;;;;;;;;;;;17.80;52.20;;;;;;5065164;28;19925;-66
2022/10/06 13:05:19;;;;;;;;;;;17.90;52.50;;;;;;5065197;28;19928;-66
2022/10/06 13:07:55;;;;;;;;;;;17.90;53.30;;;;;;5055006;28;19935;-66
2022/10/06 13:10:23;;;;;;;;;;;17.80;55.20;;;;;;5055534;28;20130;-66
2022/10/06 13:12:54;;;;;;;;;;;17.80;55.50;;;;;;5056937;28;20003;-66
2022/10/06 13:15:22;;;;;;;;;;;18.00;56.90;;;;;;5061638;28;20363;-66
2022/10/06 13:17:50;;;;;;;;;;;18.00;56.00;;;;;;5058161;28;20287;-66
2022/10/06 13:20:22;;;;;;;;;;;17.80;56.40;;;;;;5056342;28;19939;-65
2022/10/06 13:22:55;;;;;;;;;;;17.90;56.50;;;;;;5061203;28;19931;-66
2022/10/06 13:25:21;;;;;;;;;;;17.90;57.00;;;;;;5054901;28;19931;-66
2022/10/06 13:27:49;;;;;;;;;;;17.80;57.50;;;;;;5072885;28;19932;-66
2022/10/06 13:30:19;;;;;;;;;;;17.80;57.70;;;;;;5057338;28;19936;-66
2022/10/06 13:32:46;;;;;;;;;;;17.90;56.30;;;;;;5053691;28;19931;-66
2022/10/06 13:35:12;;;;;;;;;;;17.90;57.30;;;;;;5058959;28;19944;-65
2022/10/06 13:37:39;;;;;;;;;;;17.70;58.30;;;;;;5051234;28;19968;-65
2022/10/06 13:40:14;;;;;;;;;;;17.60;58.80;;;;;;5051399;28;19924;-65
2022/10/06 13:42:41;;;;;;;;;;;17.50;58.90;;;;;;5061245;28;19932;-66
2022/10/06 13:45:13;;;;;;;;;;;17.20;59.80;;;;;;5050141;28;19924;-66
2022/10/06 13:47:41;;;;;;;;;;;17.20;61.10;;;;;;5054016;28;19925;-66
2022/10/06 13:50:12;;;;;;;;;;;17.40;62.00;;;;;;5053026;28;19971;-66
2022/10/06 13:52:40;;;;;;;;;;;17.60;62.10;;;;;;5051247;28;19931;-65
2022/10/06 13:55:14;;;;;;;;;;;17.90;61.50;;;;;;5057255;28;19929;-65
2022/10/06 13:57:42;;;;;;;;;;;18.00;61.80;;;;;;5056151;28;19977;-65
2022/10/06 14:00:17;;;;;;;;;;;18.10;59.60;;;;;;5054429;28;20188;-67
2022/10/06 14:02:46;;;;;;;;;;;18.10;59.00;;;;;;5059814;28;19928;-66
2022/10/06 14:05:22;;;;;;;;;;;18.10;57.10;;;;;;5060575;28;20263;-66
2022/10/06 14:07:50;;;;;;;;;;;18.10;58.00;;;;;;5055564;28;20005;-66
2022/10/06 14:10:18;;;;;;;;;;;18.20;58.10;;;;;;5058577;28;20409;-67
2022/10/06 14:12:45;;;;;;;;;;;17.90;58.50;;;;;;5052088;28;19935;-65
2022/10/06 14:15:16;;;;;;;;;;;17.80;57.70;;;;;;5055972;28;19923;-65
2022/10/06 14:17:43;;;;;;;;;;;17.70;59.10;;;;;;5058681;28;19928;-66
2022/10/06 14:20:27;;;;;;;;;;;17.80;59.70;;;;;;5057811;28;20275;-65
2022/10/06 14:22:55;;;;;;;;;;;17.90;60.20;;;;;;5053902;28;20414;-66
2022/10/06 14:25:23;;;;;;;;;;;17.80;59.10;;;;;;5060058;28;20157;-65
2022/10/06 14:27:51;;;;;;;;;;;17.80;60.50;;;;;;5052777;28;19925;-65
2022/10/06 14:30:17;;;;;;;;;;;17.80;60.30;;;;;;5064302;28;19940;-66
2022/10/06 14:32:44;;;;;;;;;;;17.90;60.80;;;;;;5068435;28;19924;-65
2022/10/06 14:35:11;;;;;;;;;;;17.90;61.00;;;;;;5064755;28;20016;-65
2022/10/06 14:37:38;;;;;;;;;;;17.90;61.50;;;;;;5061319;28;20005;-66
2022/10/06 14:40:06;;;;;;;;;;;18.00;61.40;;;;;;5068388;28;19932;-66
2022/10/06 14:42:33;;;;;;;;;;;18.00;61.70;;;;;;5055803;28;19936;-66